Sansumifuku — JD2579 — position and weather

sailwx.info

Track history (hours):
 
Tides and Currents Weather Stations Pressure Air Temp Water Temp Dewpoint Dewpoint Depression Visibility Wind Speed Wind Dir Waves Ship Positions

Sansumifuku

Last reported at 2014-Nov-26 15:26 UTC. Time now 2014-Nov-27 20:45 UTC.
Position N 34°08' E 134°59'.

Length 75 m; draft 4.3 m.

Type: Cargo ship. MMSI: 431000426.

Date/timePositionNaut miles runAvg speedWind from/ knotsBaromVisibWave heightAir tempDewpointWater temp
2014-Nov-26 15:26N 34°08' E 134°59'1111.8
2014-Nov-26 14:29N 34°19' E 134°59'1111.4
2014-Nov-26 13:33N 34°29' E 135°01'8 6.6
2014-Nov-26 12:22N 34°36' E 134°57'1010.9
2014-Nov-26 11:29N 34°40' E 134°46'10 0.4
2014-Nov-25 08:17N 34°38' E 134°58'7 9.5
2014-Nov-25 07:33N 34°35' E 135°06'1212.1
2014-Nov-25 06:33N 34°22' E 135°04'8 8.4
2014-Nov-25 05:33N 34°15' E 135°07'15 0.7
2014-Nov-24 06:33N 34°29' E 135°13'1312.6
2014-Nov-24 05:33N 34°38' E 135°23'3 2.9
2014-Nov-24 04:33N 34°40' E 135°25'0 0.0
2014-Nov-24 03:32N 34°40' E 135°25'0 0.0
2014-Nov-24 02:26N 34°40' E 135°25'0 0.0
2014-Nov-24 01:32N 34°40' E 135°25'0 0.0
2014-Nov-24 00:26N 34°40' E 135°25'1 0.8
2014-Nov-23 23:33N 34°40' E 135°25'4 3.5
2014-Nov-23 22:26N 34°37' E 135°22'0 0.0
2014-Nov-23 21:26N 34°37' E 135°22'0 0.0
2014-Nov-23 20:32N 34°37' E 135°22'0 0.0
2014-Nov-23 19:26N 34°37' E 135°22'0 0.0
2014-Nov-23 18:32N 34°37' E 135°22'0 0.0
2014-Nov-23 17:20N 34°37' E 135°22'0 0.0
2014-Nov-23 16:32N 34°37' E 135°22'0 0.0
2014-Nov-23 15:26N 34°37' E 135°22'1 1.3
2014-Nov-23 14:32N 34°36' E 135°21'1111.0
2014-Nov-23 13:33N 34°28' E 135°12'  
2014-Nov-21 03:33N 35°18' E 139°44'1110.7
2014-Nov-21 02:32N 35°29' E 139°48'2 1.0
2014-Nov-21 00:23N 35°30' E 139°50'5 0.2
2014-Nov-20 00:27N 35°36' E 139°51'  
Track history (hours):
 
Tides and Currents Weather Stations Pressure Air Temp Water Temp Dewpoint Dewpoint Depression Visibility Wind Speed Wind Dir Waves Ship Positions

Sansumifuku

Last reported at 2014-Nov-26 15:26 UTC. Time now 2014-Nov-27 20:45 UTC.
Position N 34°08' E 134°59'.

Length 75 m; draft 4.3 m.

Type: Cargo ship. MMSI: 431000426.

Date/timePositionNaut miles runAvg speedWind from/ knotsBaromVisibWave heightAir tempDewpointWater temp
2014-Nov-26 15:26N 34°08' E 134°59'1111.8
2014-Nov-26 14:29N 34°19' E 134°59'1111.4
2014-Nov-26 13:33N 34°29' E 135°01'8 6.6
2014-Nov-26 12:22N 34°36' E 134°57'1010.9
2014-Nov-26 11:29N 34°40' E 134°46'10 0.4
2014-Nov-25 08:17N 34°38' E 134°58'7 9.5
2014-Nov-25 07:33N 34°35' E 135°06'1212.1
2014-Nov-25 06:33N 34°22' E 135°04'8 8.4
2014-Nov-25 05:33N 34°15' E 135°07'15 0.7
2014-Nov-24 06:33N 34°29' E 135°13'1312.6
2014-Nov-24 05:33N 34°38' E 135°23'3 2.9
2014-Nov-24 04:33N 34°40' E 135°25'0 0.0
2014-Nov-24 03:32N 34°40' E 135°25'0 0.0
2014-Nov-24 02:26N 34°40' E 135°25'0 0.0
2014-Nov-24 01:32N 34°40' E 135°25'0 0.0
2014-Nov-24 00:26N 34°40' E 135°25'1 0.8
2014-Nov-23 23:33N 34°40' E 135°25'4 3.5
2014-Nov-23 22:26N 34°37' E 135°22'0 0.0
2014-Nov-23 21:26N 34°37' E 135°22'0 0.0
2014-Nov-23 20:32N 34°37' E 135°22'0 0.0
2014-Nov-23 19:26N 34°37' E 135°22'0 0.0
2014-Nov-23 18:32N 34°37' E 135°22'0 0.0
2014-Nov-23 17:20N 34°37' E 135°22'0 0.0
2014-Nov-23 16:32N 34°37' E 135°22'0 0.0
2014-Nov-23 15:26N 34°37' E 135°22'1 1.3
2014-Nov-23 14:32N 34°36' E 135°21'1111.0
2014-Nov-23 13:33N 34°28' E 135°12'  
2014-Nov-21 03:33N 35°18' E 139°44'1110.7
2014-Nov-21 02:32N 35°29' E 139°48'2 1.0
2014-Nov-21 00:23N 35°30' E 139°50'5 0.2
2014-Nov-20 00:27N 35°36' E 139°51'  

Dump ship's entire track history